Time;durP1;ratioP1;P1;durP2;ratioP2;P2;SDS_P1;SDS_P2;PMS_P1;PMS_P2;Temp;Humidity;BMP_temperature;BMP_pressure;BME280_temperature;BME280_humidity;BME280_pressure;Samples;Min_cycle;Max_cycle;Signal;HPM_P1;HPM_P2
2022/12/11 00:01:13;;;;;;;47.60;27.03;;;-1.40;99.90;;;;;;5022105;28;20037;-74
2022/12/11 00:03:39;;;;;;;50.70;26.80;;;-1.30;99.90;;;;;;5022697;28;20045;-74
2022/12/11 00:06:08;;;;;;;49.23;27.57;;;-1.40;99.90;;;;;;5022140;28;20060;-74
2022/12/11 00:08:34;;;;;;;48.63;28.03;;;-1.40;99.90;;;;;;5022041;28;20029;-73
2022/12/11 00:11:00;;;;;;;51.13;27.97;;;-1.40;99.90;;;;;;5021921;28;20032;-74
2022/12/11 00:13:26;;;;;;;46.90;26.63;;;-1.40;99.90;;;;;;5022327;28;20017;-74
2022/12/11 00:15:51;;;;;;;52.70;28.67;;;-1.50;99.90;;;;;;5022057;28;20025;-74
2022/12/11 00:18:17;;;;;;;53.83;29.93;;;-1.50;99.90;;;;;;5022300;28;20049;-76
2022/12/11 00:20:43;;;;;;;52.53;28.77;;;-1.50;99.90;;;;;;5021555;28;20115;-76
2022/12/11 00:23:09;;;;;;;50.20;27.33;;;-1.50;99.90;;;;;;5022654;28;20382;-76
2022/12/11 00:25:41;;;;;;;49.00;27.40;;;-1.50;99.90;;;;;;5021475;28;20482;-75
2022/12/11 00:28:06;;;;;;;47.40;26.33;;;-1.50;99.90;;;;;;5011593;28;21395;-74
2022/12/11 00:30:32;;;;;;;46.20;24.00;;;-1.50;99.90;;;;;;5021199;28;20021;-74
2022/12/11 00:32:57;;;;;;;47.23;26.77;;;-1.50;99.90;;;;;;5022225;28;20450;-74
2022/12/11 00:35:23;;;;;;;42.93;24.20;;;-1.60;99.90;;;;;;5022486;28;20119;-74
2022/12/11 00:37:49;;;;;;;49.33;27.63;;;-1.60;99.90;;;;;;5021695;28;20034;-74
2022/12/11 00:40:14;;;;;;;42.57;24.63;;;-1.60;99.90;;;;;;5022582;28;20127;-74
2022/12/11 00:42:40;;;;;;;45.73;23.30;;;-1.60;99.90;;;;;;5010442;28;20415;-74
2022/12/11 00:45:06;;;;;;;44.73;24.37;;;-1.60;99.90;;;;;;5021714;28;20044;-74
2022/12/11 00:47:31;;;;;;;45.10;24.43;;;-1.60;99.90;;;;;;5022068;28;20108;-74
2022/12/11 00:49:57;;;;;;;47.23;24.57;;;-1.60;99.90;;;;;;5021906;28;20025;-74
2022/12/11 00:52:23;;;;;;;45.77;24.70;;;-1.60;99.90;;;;;;5009226;28;20036;-74
2022/12/11 00:54:49;;;;;;;41.53;23.97;;;-1.60;99.90;;;;;;5021702;28;20081;-74
2022/12/11 00:57:14;;;;;;;41.83;23.83;;;-1.60;99.90;;;;;;5021526;28;20029;-74
2022/12/11 00:59:40;;;;;;;39.30;23.07;;;-1.60;99.90;;;;;;5022191;28;20029;-74
2022/12/11 01:02:05;;;;;;;41.23;22.30;;;-1.60;99.90;;;;;;5022233;28;20040;-75
2022/12/11 01:04:31;;;;;;;39.80;22.40;;;-1.60;99.90;;;;;;5022162;28;20039;-74
2022/12/11 01:06:57;;;;;;;40.90;22.87;;;-1.60;99.90;;;;;;5020853;28;20505;-74
2022/12/11 01:12:06;;;;;;;40.07;22.37;;;-1.60;99.90;;;;;;5025063;28;20051;-74
2022/12/11 01:14:32;;;;;;;40.70;22.67;;;-1.60;99.90;;;;;;5025480;28;20026;-74
2022/12/11 01:16:57;;;;;;;40.37;22.73;;;-1.60;99.90;;;;;;5025210;28;20064;-74
2022/12/11 01:19:23;;;;;;;40.03;22.57;;;-1.60;99.90;;;;;;5025442;28;20060;-74
2022/12/11 01:21:49;;;;;;;40.30;22.07;;;-1.50;99.90;;;;;;5024737;28;20112;-74
2022/12/11 01:24:14;;;;;;;38.53;23.03;;;-1.50;99.90;;;;;;5025278;28;20033;-74
2022/12/11 01:26:40;;;;;;;38.43;21.40;;;-1.50;99.90;;;;;;5025570;28;20035;-74
2022/12/11 01:29:05;;;;;;;37.50;21.90;;;-1.50;99.90;;;;;;5024629;28;20028;-74
2022/12/11 01:31:31;;;;;;;35.10;19.60;;;-1.50;99.90;;;;;;5025111;28;20035;-74
2022/12/11 01:33:56;;;;;;;37.97;21.30;;;-1.50;99.90;;;;;;5024850;28;20162;-74
2022/12/11 01:36:22;;;;;;;36.00;20.93;;;-1.50;99.90;;;;;;5026477;28;20048;-73
2022/12/11 01:38:48;;;;;;;40.17;23.00;;;-1.50;99.90;;;;;;5026786;28;20033;-73
2022/12/11 01:41:16;;;;;;;35.27;20.03;;;-1.50;99.90;;;;;;5027412;28;20496;-73
2022/12/11 01:44:07;;;;;;;38.83;22.07;;;-1.50;99.90;;;;;;5025456;28;20045;-74
2022/12/11 01:46:35;;;;;;;33.87;19.90;;;-1.50;99.90;;;;;;5024931;28;20049;-74
2022/12/11 01:49:04;;;;;;;33.27;19.30;;;-1.40;99.90;;;;;;5025333;28;20021;-73
2022/12/11 01:51:34;;;;;;;30.30;19.30;;;-1.40;99.90;;;;;;5026464;28;20048;-73
2022/12/11 01:54:06;;;;;;;32.93;19.93;;;-1.40;99.90;;;;;;5025273;28;20075;-73
2022/12/11 01:56:36;;;;;;;31.67;18.23;;;-1.40;99.90;;;;;;5026349;28;20025;-73
2022/12/11 01:59:06;;;;;;;33.53;19.60;;;-1.50;99.90;;;;;;5026261;28;20030;-73
2022/12/11 02:01:41;;;;;;;31.30;18.60;;;-1.50;99.90;;;;;;5025236;28;20029;-73
2022/12/11 02:04:08;;;;;;;30.70;18.77;;;-1.50;99.90;;;;;;5026197;28;20045;-73
2022/12/11 02:06:38;;;;;;;31.00;18.93;;;-1.50;99.90;;;;;;5024858;28;20092;-73
2022/12/11 02:09:09;;;;;;;33.70;17.97;;;-1.40;99.90;;;;;;5025495;28;20109;-74
2022/12/11 02:12:00;;;;;;;33.90;20.23;;;-1.40;99.90;;;;;;5025050;28;20018;-73
2022/12/11 02:14:37;;;;;;;32.40;19.83;;;-1.40;99.90;;;;;;5015580;28;20029;-73
2022/12/11 02:17:42;;;;;;;34.03;19.53;;;-1.40;99.90;;;;;;5025174;28;20081;-73
2022/12/11 02:20:22;;;;;;;33.00;19.57;;;-1.40;99.90;;;;;;5011410;28;20041;-73
2022/12/11 02:23:09;;;;;;;34.23;20.13;;;-1.40;99.90;;;;;;5024114;28;20030;-73
2022/12/11 02:25:55;;;;;;;33.33;19.23;;;-1.40;99.90;;;;;;5024941;28;20103;-73
2022/12/11 02:28:47;;;;;;;33.83;19.33;;;-1.40;99.90;;;;;;5025770;28;20037;-73
2022/12/11 02:31:28;;;;;;;30.83;18.53;;;-1.40;99.90;;;;;;5025163;28;20037;-73
2022/12/11 02:34:03;;;;;;;31.90;19.57;;;-1.40;99.90;;;;;;5025821;28;20029;-73
2022/12/11 02:36:34;;;;;;;30.58;18.42;;;-1.40;99.90;;;;;;5024874;28;20433;-73
2022/12/11 02:39:02;;;;;;;33.23;19.70;;;-1.50;99.90;;;;;;5024865;28;20881;-73
2022/12/11 02:41:29;;;;;;;31.07;18.37;;;-1.50;99.90;;;;;;5025596;28;20021;-73
2022/12/11 02:43:56;;;;;;;32.13;19.70;;;-1.50;99.90;;;;;;5025107;28;20029;-73
2022/12/11 02:46:24;;;;;;;32.50;18.40;;;-1.50;99.90;;;;;;5025240;28;20553;-73
2022/12/11 02:48:52;;;;;;;30.33;18.63;;;-1.50;99.90;;;;;;5012394;28;20036;-73
2022/12/11 02:51:23;;;;;;;31.73;18.87;;;-1.50;99.90;;;;;;5025183;28;20351;-73
2022/12/11 02:53:53;;;;;;;33.70;19.47;;;-1.50;99.90;;;;;;5029110;28;20076;-73
2022/12/11 02:56:29;;;;;;;33.50;18.93;;;-1.50;99.90;;;;;;5031870;28;20033;-73
2022/12/11 02:59:01;;;;;;;31.90;18.97;;;-1.50;99.90;;;;;;5025189;28;20031;-73
2022/12/11 03:01:27;;;;;;;33.83;20.17;;;-1.50;99.90;;;;;;5024922;28;20013;-73
2022/12/11 03:03:54;;;;;;;31.67;18.57;;;-1.50;99.90;;;;;;5025145;28;20035;-73
2022/12/11 03:06:25;;;;;;;32.33;19.00;;;-1.40;99.90;;;;;;5024691;28;20049;-73
2022/12/11 03:08:53;;;;;;;31.33;18.83;;;-1.50;99.90;;;;;;5024158;28;20033;-73
2022/12/11 03:11:19;;;;;;;32.60;19.63;;;-1.40;99.90;;;;;;5025249;28;20076;-73
2022/12/11 03:13:45;;;;;;;28.27;17.80;;;-1.50;99.90;;;;;;5024503;28;20025;-73
2022/12/11 03:16:35;;;;;;;31.83;19.30;;;-1.50;99.90;;;;;;5024075;28;21395;-73
2022/12/11 03:19:08;;;;;;;28.97;18.90;;;-1.50;99.90;;;;;;5025143;28;20029;-73
2022/12/11 03:22:16;;;;;;;31.70;18.00;;;-1.50;99.90;;;;;;5024337;28;20033;-74
2022/12/11 03:24:59;;;;;;;26.87;16.53;;;-1.50;99.90;;;;;;4965665;28;20046;-73
2022/12/11 03:27:47;;;;;;;29.33;18.20;;;-1.60;99.90;;;;;;4964568;28;20080;-73
2022/12/11 03:30:21;;;;;;;30.07;18.13;;;-1.60;99.90;;;;;;5008861;28;20064;-73
2022/12/11 03:32:57;;;;;;;29.77;18.03;;;-1.60;99.90;;;;;;5024159;28;20021;-73
2022/12/11 03:35:32;;;;;;;31.47;18.47;;;-1.70;99.90;;;;;;5024305;28;20438;-73
2022/12/11 03:38:02;;;;;;;28.88;17.73;;;-1.70;99.90;;;;;;5023972;28;20084;-73
2022/12/11 03:40:32;;;;;;;28.67;17.50;;;-1.70;99.90;;;;;;5023765;28;20033;-73
2022/12/11 03:42:58;;;;;;;30.63;17.33;;;-1.70;99.90;;;;;;5024265;28;20361;-73
2022/12/11 03:45:26;;;;;;;27.83;16.63;;;-1.80;99.90;;;;;;5024131;28;20030;-73
2022/12/11 03:47:54;;;;;;;29.23;17.50;;;-1.80;99.90;;;;;;5024358;28;20025;-73
2022/12/11 03:50:21;;;;;;;30.63;18.00;;;-1.80;99.90;;;;;;5011077;28;20090;-73
2022/12/11 03:52:50;;;;;;;27.57;17.17;;;-1.80;99.90;;;;;;5023837;28;20032;-73
2022/12/11 03:55:18;;;;;;;28.37;17.30;;;-1.80;99.90;;;;;;5023940;28;20024;-73
2022/12/11 03:57:44;;;;;;;30.00;17.03;;;-1.90;99.90;;;;;;5023953;28;20393;-73
2022/12/11 04:00:13;;;;;;;30.43;17.83;;;-1.90;99.90;;;;;;5024500;28;20022;-73
2022/12/11 04:02:40;;;;;;;30.30;18.47;;;-1.90;99.90;;;;;;5025151;28;20040;-73
2022/12/11 04:05:06;;;;;;;34.97;19.63;;;-1.90;99.90;;;;;;5024419;28;20061;-73
2022/12/11 04:07:31;;;;;;;31.40;18.87;;;-1.90;99.90;;;;;;5023294;28;20037;-74
2022/12/11 04:09:57;;;;;;;31.00;17.83;;;-1.80;99.90;;;;;;5023241;28;20315;-73
2022/12/11 04:12:23;;;;;;;32.23;18.90;;;-1.90;99.90;;;;;;5024064;28;20417;-73
2022/12/11 04:15:00;;;;;;;28.70;17.07;;;-1.80;99.90;;;;;;5012301;28;20037;-73
2022/12/11 04:25:39;;;;;;;30.07;18.10;;;-1.80;99.90;;;;;;5023949;28;20040;-74
2022/12/11 04:28:05;;;;;;;29.23;18.23;;;-1.80;99.90;;;;;;5009951;28;20029;-74
2022/12/11 04:30:30;;;;;;;30.23;18.67;;;-1.80;99.90;;;;;;5023649;28;20429;-73
2022/12/11 04:32:56;;;;;;;26.23;16.50;;;-1.80;99.90;;;;;;5015453;28;20120;-74
2022/12/11 04:35:22;;;;;;;24.87;15.00;;;-1.80;99.90;;;;;;5027000;28;20021;-74
2022/12/11 04:37:48;;;;;;;19.63;12.43;;;-1.90;99.90;;;;;;5027748;28;20113;-73
2022/12/11 04:40:16;;;;;;;13.97;8.73;;;-1.90;99.90;;;;;;5028244;28;20140;-73
2022/12/11 04:42:44;;;;;;;13.03;7.93;;;-1.80;99.90;;;;;;5027895;28;20029;-73
2022/12/11 04:45:10;;;;;;;12.37;8.23;;;-1.80;99.90;;;;;;5049985;28;20387;-74
2022/12/11 04:47:38;;;;;;;17.30;10.57;;;-1.80;99.90;;;;;;5029459;28;20549;-73
2022/12/11 04:50:06;;;;;;;20.63;12.63;;;-1.80;99.90;;;;;;5030489;28;20030;-74
2022/12/11 04:52:31;;;;;;;22.83;14.67;;;-1.80;99.90;;;;;;5030586;28;20018;-73
2022/12/11 04:54:57;;;;;;;24.70;14.17;;;-1.80;99.90;;;;;;5032450;28;20031;-73
2022/12/11 04:57:22;;;;;;;25.63;15.37;;;-1.80;99.90;;;;;;5021077;28;20095;-73
2022/12/11 04:59:48;;;;;;;25.40;15.87;;;-1.80;99.90;;;;;;5022373;28;20129;-73
2022/12/11 05:02:15;;;;;;;28.70;16.37;;;-1.80;99.90;;;;;;5018210;28;20025;-73
2022/12/11 05:04:40;;;;;;;29.13;17.73;;;-1.70;99.90;;;;;;5031986;28;20025;-73
2022/12/11 05:07:08;;;;;;;29.60;16.97;;;-1.70;99.90;;;;;;5032134;28;20050;-74
2022/12/11 05:09:34;;;;;;;29.93;17.30;;;-1.70;99.90;;;;;;5031547;28;20482;-73
2022/12/11 05:11:59;;;;;;;27.80;17.50;;;-1.70;99.90;;;;;;5032456;28;20068;-73
2022/12/11 05:14:26;;;;;;;29.23;17.27;;;-1.70;99.90;;;;;;5031466;28;20466;-74
2022/12/11 05:16:52;;;;;;;26.67;15.80;;;-1.70;99.90;;;;;;5031745;28;20021;-73
2022/12/11 05:19:17;;;;;;;26.23;15.90;;;-1.70;99.90;;;;;;5031314;28;20025;-74
2022/12/11 05:21:43;;;;;;;26.50;15.13;;;-1.70;99.90;;;;;;5030777;28;20025;-74
2022/12/11 05:24:08;;;;;;;27.77;16.20;;;-1.70;99.90;;;;;;5030002;28;20083;-74
2022/12/11 05:26:36;;;;;;;25.67;15.47;;;-1.70;99.90;;;;;;5030016;28;20068;-75
2022/12/11 05:29:02;;;;;;;27.03;15.87;;;-1.70;99.90;;;;;;5029914;28;20112;-77
2022/12/11 05:31:27;;;;;;;26.83;15.23;;;-1.70;99.90;;;;;;5030591;28;20105;-78
2022/12/11 05:33:53;;;;;;;22.03;13.80;;;-1.70;99.90;;;;;;5029754;28;20105;-77
2022/12/11 05:36:24;;;;;;;25.97;15.17;;;-1.70;99.90;;;;;;5031700;28;20028;-76
2022/12/11 05:38:50;;;;;;;29.07;16.20;;;-1.80;99.90;;;;;;5030813;28;20170;-76
2022/12/11 05:41:18;;;;;;;23.00;14.20;;;-1.80;99.90;;;;;;5031022;28;20025;-77
2022/12/11 05:43:44;;;;;;;23.27;14.37;;;-1.80;99.90;;;;;;5030807;28;20042;-84
2022/12/11 05:46:13;;;;;;;23.43;14.30;;;-1.80;99.90;;;;;;5031306;28;20029;-76
2022/12/11 05:48:40;;;;;;;23.37;14.37;;;-1.80;99.90;;;;;;5017931;28;20418;-76
2022/12/11 05:51:07;;;;;;;24.83;14.47;;;-1.80;99.90;;;;;;5030115;28;20034;-76
2022/12/11 05:53:33;;;;;;;22.07;13.90;;;-1.80;99.90;;;;;;5031246;28;20123;-76
2022/12/11 05:56:27;;;;;;;21.53;13.23;;;-1.80;99.90;;;;;;5030392;28;20331;-75
2022/12/11 05:58:53;;;;;;;25.80;14.27;;;-1.80;99.90;;;;;;5027564;28;20061;-76
2022/12/11 06:01:26;;;;;;;24.50;14.73;;;-1.80;99.90;;;;;;5030090;28;20123;-76
2022/12/11 06:03:55;;;;;;;25.43;14.30;;;-1.80;99.90;;;;;;5025678;28;20033;-76
2022/12/11 06:06:21;;;;;;;25.30;14.90;;;-1.80;99.90;;;;;;5032388;28;20053;-76
2022/12/11 06:08:51;;;;;;;26.30;15.27;;;-1.80;99.90;;;;;;5030633;28;20120;-75
2022/12/11 06:11:16;;;;;;;28.70;16.60;;;-1.80;99.90;;;;;;5030712;28;20040;-76
2022/12/11 06:13:42;;;;;;;26.63;15.80;;;-1.80;99.90;;;;;;5030220;28;20025;-76
2022/12/11 06:16:08;;;;;;;27.00;16.60;;;-1.90;99.90;;;;;;5030639;28;20018;-75
2022/12/11 06:18:36;;;;;;;30.57;17.70;;;-1.90;99.90;;;;;;5030221;28;20048;-76
2022/12/11 06:21:01;;;;;;;28.77;16.40;;;-1.90;99.90;;;;;;5030209;28;20025;-76
2022/12/11 06:23:27;;;;;;;27.13;16.00;;;-1.90;99.90;;;;;;5018372;28;20052;-76
2022/12/11 06:25:52;;;;;;;31.83;16.90;;;-1.90;99.90;;;;;;5030925;28;20485;-76
2022/12/11 06:28:18;;;;;;;26.63;16.67;;;-1.90;99.90;;;;;;5014288;28;20394;-76
2022/12/11 06:30:43;;;;;;;30.40;17.47;;;-1.90;99.90;;;;;;5030807;28;20021;-75
2022/12/11 06:33:09;;;;;;;27.20;16.17;;;-1.90;99.90;;;;;;5030477;28;20064;-76
2022/12/11 06:35:35;;;;;;;28.73;16.83;;;-1.80;99.90;;;;;;5032478;28;20025;-76
2022/12/11 06:38:00;;;;;;;29.07;16.20;;;-1.80;99.90;;;;;;5030016;28;20035;-76
2022/12/11 06:40:26;;;;;;;28.13;16.93;;;-1.80;99.90;;;;;;5028801;28;20101;-76
2022/12/11 06:42:53;;;;;;;26.87;16.53;;;-1.80;99.90;;;;;;5029442;28;20030;-76
2022/12/11 06:45:19;;;;;;;28.87;16.57;;;-1.80;99.90;;;;;;5034195;28;20013;-76
2022/12/11 06:47:44;;;;;;;28.77;16.53;;;-1.80;99.90;;;;;;5028843;28;20430;-75
2022/12/11 06:50:10;;;;;;;28.60;17.00;;;-1.80;99.90;;;;;;5028471;28;20505;-76
2022/12/11 06:52:36;;;;;;;27.67;16.23;;;-1.80;99.90;;;;;;5030661;28;20045;-75
2022/12/11 06:55:01;;;;;;;29.27;17.17;;;-1.80;99.90;;;;;;5030104;28;20037;-76
2022/12/11 06:57:27;;;;;;;28.03;16.53;;;-1.80;99.90;;;;;;5029284;28;20442;-76
2022/12/11 06:59:52;;;;;;;26.30;16.00;;;-1.80;99.90;;;;;;5030168;28;20098;-76
2022/12/11 07:02:19;;;;;;;27.93;15.77;;;-1.80;99.90;;;;;;5016197;28;20029;-76
2022/12/11 07:04:44;;;;;;;29.80;17.87;;;-1.80;99.90;;;;;;5030894;28;20184;-76
2022/12/11 07:07:10;;;;;;;32.10;18.07;;;-1.80;99.90;;;;;;5029594;28;20128;-75
2022/12/11 07:09:38;;;;;;;30.27;17.53;;;-1.80;99.90;;;;;;5029213;28;20026;-75
2022/12/11 07:12:05;;;;;;;27.87;16.93;;;-1.80;99.90;;;;;;5032914;28;20106;-76
2022/12/11 07:14:31;;;;;;;29.00;17.43;;;-1.80;99.90;;;;;;5030414;28;20148;-76
2022/12/11 07:16:57;;;;;;;26.63;16.87;;;-1.80;99.90;;;;;;5030271;28;20104;-83
2022/12/11 07:19:23;;;;;;;30.13;17.50;;;-1.80;99.90;;;;;;5029365;28;20056;-76
2022/12/11 07:21:49;;;;;;;28.30;17.30;;;-1.80;99.90;;;;;;5018607;28;20418;-75
2022/12/11 07:24:15;;;;;;;28.60;17.73;;;-1.80;99.90;;;;;;5027867;28;20073;-77
2022/12/11 07:26:41;;;;;;;28.60;16.50;;;-1.80;99.90;;;;;;5026869;28;20029;-76
2022/12/11 07:29:06;;;;;;;30.07;17.60;;;-1.80;99.90;;;;;;5026712;28;20084;-76
2022/12/11 07:31:32;;;;;;;29.33;17.60;;;-1.80;99.90;;;;;;5027070;28;20025;-76
2022/12/11 07:34:01;;;;;;;29.57;17.90;;;-1.80;99.90;;;;;;5027703;28;20029;-77
2022/12/11 07:36:27;;;;;;;33.50;18.33;;;-1.80;99.90;;;;;;5027006;28;20377;-77
2022/12/11 07:38:53;;;;;;;32.50;18.33;;;-1.80;99.90;;;;;;5027334;28;20104;-77
2022/12/11 07:41:19;;;;;;;35.13;19.40;;;-1.80;99.90;;;;;;5026831;28;20025;-78
2022/12/11 07:43:45;;;;;;;29.13;17.80;;;-1.80;99.90;;;;;;5031615;28;20488;-78
2022/12/11 07:46:13;;;;;;;30.03;17.37;;;-1.90;99.90;;;;;;5026143;28;20776;-77
2022/12/11 07:48:40;;;;;;;30.07;17.73;;;-1.90;99.90;;;;;;5026593;28;20036;-78
2022/12/11 07:51:10;;;;;;;32.27;17.90;;;-1.80;99.90;;;;;;5026960;28;20053;-78
2022/12/11 07:53:36;;;;;;;31.07;18.23;;;-1.90;99.90;;;;;;5026289;28;20018;-76
2022/12/11 07:56:02;;;;;;;32.13;18.83;;;-1.80;99.90;;;;;;5027197;28;20024;-76
2022/12/11 07:58:28;;;;;;;30.47;17.87;;;-1.80;99.90;;;;;;5025291;28;20239;-76
2022/12/11 08:00:54;;;;;;;32.20;18.20;;;-1.80;99.90;;;;;;5027612;28;20480;-76
2022/12/11 08:03:19;;;;;;;32.93;18.93;;;-1.80;99.90;;;;;;5028423;28;20815;-75
2022/12/11 08:05:49;;;;;;;30.77;18.90;;;-1.80;99.90;;;;;;5025909;28;20094;-75
2022/12/11 08:08:15;;;;;;;35.23;19.17;;;-1.80;99.90;;;;;;5026560;28;20148;-76
2022/12/11 08:10:41;;;;;;;32.87;20.03;;;-1.70;99.90;;;;;;5025896;28;20022;-76
2022/12/11 08:13:07;;;;;;;31.57;18.70;;;-1.70;99.90;;;;;;5025323;28;20033;-76
2022/12/11 08:15:33;;;;;;;31.60;18.67;;;-1.70;99.90;;;;;;5025293;28;20091;-75
2022/12/11 08:17:58;;;;;;;31.33;19.10;;;-1.70;99.90;;;;;;5027499;28;20092;-75
2022/12/11 08:20:24;;;;;;;27.30;16.70;;;-1.60;99.90;;;;;;5028968;28;20475;-75
2022/12/11 08:22:49;;;;;;;32.23;18.87;;;-1.50;99.90;;;;;;5031241;28;20017;-76
2022/12/11 08:25:15;;;;;;;29.27;18.03;;;-1.60;99.90;;;;;;5029941;28;20036;-76
2022/12/11 08:27:41;;;;;;;32.37;18.37;;;-1.50;99.90;;;;;;5014540;28;20083;-75
2022/12/11 08:30:07;;;;;;;30.10;18.27;;;-1.50;99.90;;;;;;5031555;28;20075;-78
2022/12/11 08:32:33;;;;;;;30.67;18.83;;;-1.50;99.90;;;;;;5030796;28;20014;-75
2022/12/11 08:34:59;;;;;;;29.33;17.90;;;-1.50;99.90;;;;;;5030594;28;20013;-76
2022/12/11 08:37:24;;;;;;;30.47;18.27;;;-1.40;99.90;;;;;;5029144;28;20544;-76
2022/12/11 08:39:50;;;;;;;32.73;18.77;;;-1.40;99.90;;;;;;5028543;28;20599;-76
2022/12/11 08:42:15;;;;;;;29.90;17.63;;;-1.40;99.90;;;;;;5029333;28;20033;-76
2022/12/11 08:44:41;;;;;;;30.80;18.03;;;-1.40;99.90;;;;;;5029909;28;20655;-76
2022/12/11 08:47:08;;;;;;;32.67;16.93;;;-1.40;99.90;;;;;;5029678;28;20017;-76
2022/12/11 08:49:35;;;;;;;26.40;16.30;;;-1.40;99.90;;;;;;5027518;28;20021;-76
2022/12/11 08:52:02;;;;;;;27.23;16.90;;;-1.40;99.90;;;;;;5029411;28;20039;-76
2022/12/11 08:54:28;;;;;;;25.10;15.73;;;-1.50;99.90;;;;;;5027907;28;20390;-76
2022/12/11 08:56:53;;;;;;;24.70;15.40;;;-1.50;99.90;;;;;;5029262;28;20021;-79
2022/12/11 08:59:19;;;;;;;25.17;15.77;;;-1.50;99.90;;;;;;5027841;28;20033;-76
2022/12/11 09:01:45;;;;;;;27.37;16.70;;;-1.50;99.90;;;;;;5032465;28;20021;-76
2022/12/11 09:04:10;;;;;;;28.87;16.80;;;-1.60;99.90;;;;;;5033412;28;20022;-76
2022/12/11 09:06:36;;;;;;;26.43;15.67;;;-1.50;99.90;;;;;;5030633;28;20044;-74
2022/12/11 09:09:03;;;;;;;25.23;15.87;;;-1.50;99.90;;;;;;5028980;28;20037;-75
2022/12/11 09:11:32;;;;;;;23.83;14.87;;;-1.50;99.90;;;;;;5028651;28;20099;-75
2022/12/11 09:13:58;;;;;;;24.20;15.20;;;-1.30;99.90;;;;;;5028711;28;20488;-75
2022/12/11 09:16:25;;;;;;;26.63;15.13;;;-1.40;99.90;;;;;;5032178;28;20386;-75
2022/12/11 09:18:53;;;;;;;22.90;14.70;;;-1.30;99.90;;;;;;5028634;28;20414;-75
2022/12/11 09:21:21;;;;;;;26.67;15.97;;;-1.30;99.90;;;;;;5028275;28;20111;-75
2022/12/11 09:23:48;;;;;;;23.57;15.07;;;-1.40;99.90;;;;;;5029119;28;20040;-75
2022/12/11 09:26:16;;;;;;;23.07;14.80;;;-1.40;99.90;;;;;;5028197;28;20133;-75
2022/12/11 09:28:42;;;;;;;25.40;14.90;;;-1.40;99.90;;;;;;5030124;28;20075;-75
2022/12/11 09:31:18;;;;;;;28.47;15.33;;;-1.40;99.90;;;;;;5026548;28;20474;-75
2022/12/11 09:33:44;;;;;;;24.53;14.67;;;-1.50;99.90;;;;;;5029069;28;20534;-75
2022/12/11 09:36:10;;;;;;;25.07;14.80;;;-1.50;99.90;;;;;;5028220;28;20433;-75
2022/12/11 09:38:37;;;;;;;28.07;15.97;;;-1.50;99.90;;;;;;5026072;28;20111;-75
2022/12/11 09:41:21;;;;;;;24.27;15.07;;;-1.60;99.90;;;;;;5026344;28;20040;-75
2022/12/11 09:44:06;;;;;;;21.05;13.45;;;-1.50;99.90;;;;;;5026342;28;20032;-76
2022/12/11 09:46:34;;;;;;;23.38;13.98;;;-1.50;99.90;;;;;;5027464;28;20498;-76
2022/12/11 09:49:03;;;;;;;24.57;14.60;;;-1.50;99.90;;;;;;5027572;28;20128;-76
2022/12/11 09:51:46;;;;;;;21.03;13.27;;;-1.50;99.90;;;;;;5027870;28;20818;-76
2022/12/11 09:54:13;;;;;;;23.40;14.03;;;-1.50;99.90;;;;;;5026354;28;20033;-76
2022/12/11 09:56:45;;;;;;;21.17;12.83;;;-1.40;99.90;;;;;;5027855;28;20354;-76
2022/12/11 09:59:35;;;;;;;22.87;13.67;;;-1.40;99.90;;;;;;5027078;28;20037;-76
2022/12/11 10:02:21;;;;;;;20.03;12.53;;;-1.30;99.90;;;;;;5028343;28;20036;-76
2022/12/11 10:05:06;;;;;;;20.33;12.93;;;-1.20;99.90;;;;;;5026300;28;20199;-76
2022/12/11 10:07:44;;;;;;;20.57;13.43;;;-1.30;99.90;;;;;;5027388;28;20049;-76
2022/12/11 10:10:19;;;;;;;20.60;12.90;;;-1.30;99.90;;;;;;5024629;28;20026;-76
2022/12/11 10:13:05;;;;;;;20.00;12.53;;;-1.30;99.90;;;;;;5013139;28;20394;-76
2022/12/11 10:15:34;;;;;;;18.83;12.17;;;-1.30;99.90;;;;;;5027606;28;20053;-76
2022/12/11 10:18:00;;;;;;;20.47;11.90;;;-1.30;99.90;;;;;;5027022;28;20025;-75
2022/12/11 10:20:35;;;;;;;17.00;11.43;;;-1.30;99.90;;;;;;5027481;28;20144;-76
2022/12/11 10:23:02;;;;;;;16.05;10.25;;;-1.30;99.90;;;;;;5028126;28;20859;-76
2022/12/11 10:25:34;;;;;;;21.13;12.20;;;-1.30;99.90;;;;;;5025861;28;20033;-76
2022/12/11 10:28:11;;;;;;;21.63;13.80;;;-1.30;99.90;;;;;;5026303;28;20033;-76
2022/12/11 10:30:40;;;;;;;21.07;12.67;;;-1.20;99.90;;;;;;5045028;28;20026;-76
2022/12/11 10:33:21;;;;;;;20.93;12.97;;;-1.20;99.90;;;;;;5027342;28;20053;-76
2022/12/11 10:35:53;;;;;;;21.13;12.30;;;-1.20;99.90;;;;;;5026840;28;20140;-76
2022/12/11 10:38:31;;;;;;;20.50;12.10;;;-1.20;99.90;;;;;;5028223;28;20087;-75
2022/12/11 10:41:20;;;;;;;20.27;12.40;;;-1.10;99.90;;;;;;5027059;28;20076;-76
2022/12/11 10:43:48;;;;;;;17.63;12.07;;;-1.10;99.90;;;;;;5028105;28;20068;-76
2022/12/11 10:46:24;;;;;;;16.93;10.97;;;-0.90;99.90;;;;;;5028377;28;20052;-76
2022/12/11 10:48:52;;;;;;;19.70;11.73;;;-0.90;99.90;;;;;;5027528;28;21406;-76
2022/12/11 10:51:23;;;;;;;19.93;12.90;;;-0.90;99.90;;;;;;5026706;28;20021;-76
2022/12/11 10:53:54;;;;;;;18.37;12.40;;;-0.80;99.90;;;;;;5025367;28;20033;-77
2022/12/11 10:56:32;;;;;;;22.47;13.47;;;-0.90;99.90;;;;;;5022845;28;20100;-77
2022/12/11 10:58:59;;;;;;;21.53;14.27;;;-0.90;99.90;;;;;;5025058;28;20505;-77
2022/12/11 11:01:28;;;;;;;18.93;12.33;;;-1.00;99.90;;;;;;5023250;28;20053;-77
2022/12/11 11:04:05;;;;;;;18.57;12.57;;;-1.00;99.90;;;;;;5022141;28;20029;-77
2022/12/11 11:06:32;;;;;;;20.60;13.17;;;-1.00;99.90;;;;;;5022098;28;20057;-77
2022/12/11 11:09:00;;;;;;;18.57;11.93;;;-0.90;99.90;;;;;;5022511;28;20045;-77
2022/12/11 11:11:37;;;;;;;22.00;13.70;;;-0.90;99.90;;;;;;5022467;28;20093;-77
2022/12/11 11:14:06;;;;;;;16.37;11.27;;;-0.90;99.90;;;;;;5022940;28;20049;-77
2022/12/11 11:16:38;;;;;;;17.97;11.83;;;-0.90;99.90;;;;;;5021664;28;20119;-77
2022/12/11 11:19:05;;;;;;;20.57;12.37;;;-0.80;99.90;;;;;;5022191;28;20026;-77
2022/12/11 11:21:32;;;;;;;19.87;12.27;;;-0.80;99.90;;;;;;5021834;28;20135;-77
2022/12/11 11:23:58;;;;;;;18.83;12.37;;;-0.80;99.90;;;;;;5022266;28;20037;-77
2022/12/11 11:26:24;;;;;;;17.63;11.57;;;-0.80;99.90;;;;;;5021766;28;20048;-77
2022/12/11 11:28:53;;;;;;;16.17;11.43;;;-0.80;99.90;;;;;;5021768;28;20099;-77
2022/12/11 11:31:29;;;;;;;16.47;11.67;;;-0.90;99.90;;;;;;5022205;28;20064;-78
2022/12/11 11:34:05;;;;;;;18.00;11.10;;;-0.90;99.90;;;;;;5025315;28;20098;-78
2022/12/11 11:36:34;;;;;;;20.03;12.47;;;-1.00;99.90;;;;;;5026634;28;20033;-78
2022/12/11 11:39:34;;;;;;;16.80;11.30;;;-1.00;99.90;;;;;;5022925;28;20080;-78
2022/12/11 11:42:12;;;;;;;17.43;10.93;;;-1.00;99.90;;;;;;5004128;28;20037;-78
2022/12/11 11:44:49;;;;;;;18.00;11.40;;;-1.00;99.90;;;;;;5020527;28;20033;-78
2022/12/11 11:47:24;;;;;;;15.80;10.10;;;-1.00;99.90;;;;;;5020835;28;20176;-78
2022/12/11 11:50:02;;;;;;;15.40;9.93;;;-0.90;99.90;;;;;;5020656;28;20025;-78
2022/12/11 11:52:33;;;;;;;15.37;10.07;;;-0.80;99.90;;;;;;5021468;28;20018;-82
2022/12/11 11:55:05;;;;;;;16.07;10.43;;;-0.80;99.90;;;;;;5028868;28;20075;-78
2022/12/11 11:57:44;;;;;;;15.97;10.13;;;-0.70;99.90;;;;;;5009284;28;20828;-78
2022/12/11 12:00:27;;;;;;;17.03;10.97;;;-0.70;99.90;;;;;;5020961;28;20204;-78
2022/12/11 12:02:58;;;;;;;16.30;10.40;;;-0.80;99.90;;;;;;5023926;28;20029;-90
2022/12/11 12:05:38;;;;;;;16.30;10.70;;;-0.80;99.90;;;;;;5021739;28;20095;-77
2022/12/11 12:08:15;;;;;;;15.70;10.63;;;-0.80;99.90;;;;;;5020394;28;20033;-77
2022/12/11 12:10:51;;;;;;;15.90;10.03;;;-0.80;99.90;;;;;;5008253;28;20458;-77
2022/12/11 12:13:43;;;;;;;15.50;10.10;;;-0.80;99.90;;;;;;5021415;28;20021;-78
2022/12/11 12:16:23;;;;;;;17.23;9.20;;;-0.70;99.90;;;;;;4984988;28;20045;-78
2022/12/11 12:19:23;;;;;;;12.87;8.47;;;-0.70;99.90;;;;;;5020651;28;20271;-78
2022/12/11 12:21:51;;;;;;;12.77;8.70;;;-0.60;99.90;;;;;;5020133;28;20035;-79
2022/12/11 12:24:17;;;;;;;14.67;8.87;;;-0.60;99.90;;;;;;5025895;28;20478;-79
2022/12/11 12:26:53;;;;;;;14.13;9.20;;;-0.60;99.90;;;;;;5019187;28;20033;-76
2022/12/11 12:29:27;;;;;;;17.50;9.00;;;-0.50;99.90;;;;;;5017275;28;20029;-76
2022/12/11 12:32:38;;;;;;;14.70;8.52;;;-0.40;99.90;;;;;;5021480;28;20100;-77
2022/12/11 12:35:51;;;;;;;10.47;7.00;;;-0.30;99.90;;;;;;4981744;28;20996;-78
2022/12/11 12:38:42;;;;;;;10.30;6.90;;;-0.10;99.90;;;;;;4985678;28;20038;-78
2022/12/11 12:41:35;;;;;;;9.93;7.07;;;-0.10;99.90;;;;;;5021055;28;20113;-77
2022/12/11 12:44:29;;;;;;;11.43;7.90;;;-0.20;99.90;;;;;;5026748;28;20162;-76
2022/12/11 12:47:08;;;;;;;14.40;7.67;;;-0.30;99.90;;;;;;5023378;28;20033;-78
2022/12/11 12:49:46;;;;;;;11.87;7.20;;;-0.40;99.90;;;;;;5018900;28;20029;-78
2022/12/11 12:52:19;;;;;;;14.07;6.83;;;-0.40;99.90;;;;;;5019526;28;20081;-78
2022/12/11 12:55:12;;;;;;;12.83;7.57;;;-0.50;99.90;;;;;;5021078;28;20072;-78